Time;durP1;ratioP1;P1;durP2;ratioP2;P2;SDS_P1;SDS_P2;PMS_P1;PMS_P2;Temp;Humidity;BMP_temperature;BMP_pressure;BME280_temperature;BME280_humidity;BME280_pressure;Samples;Min_cycle;Max_cycle;Signal;HPM_P1;HPM_P2
2022/05/05 00:00:10;;;;;;;12.60;11.37;;;17.40;1.00;;;;;;5109473;28;20490;-54
2022/05/05 00:02:36;;;;;;;12.13;11.13;;;17.20;1.00;;;;;;5095940;28;20234;-54
2022/05/05 00:05:03;;;;;;;11.13;10.03;;;17.30;1.00;;;;;;5106015;28;20484;-54
2022/05/05 00:07:29;;;;;;;11.70;10.70;;;17.30;1.00;;;;;;5101083;28;20183;-54
2022/05/05 00:09:54;;;;;;;11.80;10.70;;;17.00;1.00;;;;;;5099414;28;20452;-54
2022/05/05 00:15:07;;;;;;;11.93;10.93;;;16.90;1.00;;;;;;5069394;28;20225;-52
2022/05/05 00:17:34;;;;;;;13.87;12.50;;;14.50;1.00;;;;;;5104607;28;21315;-52
2022/05/05 00:20:00;;;;;;;10.80;10.00;;;16.90;1.00;;;;;;5102076;28;20933;-55
2022/05/05 00:22:26;;;;;;;12.20;11.03;;;16.80;1.00;;;;;;5107220;28;20478;-55
2022/05/05 00:24:51;;;;;;;12.00;10.80;;;16.90;1.00;;;;;;5108638;28;20547;-52
2022/05/05 00:27:17;;;;;;;12.10;11.00;;;17.00;1.00;;;;;;5102418;28;20536;-55
2022/05/05 00:29:42;;;;;;;12.33;11.23;;;17.00;1.00;;;;;;5107905;28;20212;-55
2022/05/05 00:32:08;;;;;;;12.73;11.63;;;16.90;1.00;;;;;;5105090;28;20671;-54
2022/05/05 00:34:34;;;;;;;12.33;11.23;;;16.90;1.00;;;;;;5100368;28;20237;-54
2022/05/05 00:37:00;;;;;;;12.60;11.40;;;16.90;1.00;;;;;;5103408;28;20447;-56
2022/05/05 00:39:25;;;;;;;13.43;12.17;;;17.00;1.00;;;;;;5102429;28;20194;-52
2022/05/05 00:41:52;;;;;;;12.57;11.37;;;18.20;1.00;;;;;;5103256;28;20217;-56
2022/05/05 00:44:17;;;;;;;12.20;11.10;;;17.00;1.00;;;;;;5100319;28;20245;-54
2022/05/05 00:46:51;;;;;;;13.57;12.37;;;19.50;1.00;;;;;;5101023;28;20447;-51
2022/05/05 00:49:17;;;;;;;14.37;13.07;;;17.00;1.00;;;;;;5102502;28;20182;-54
2022/05/05 00:51:44;;;;;;;13.93;12.60;;;17.00;1.00;;;;;;5104072;28;20814;-53
2022/05/05 00:54:09;;;;;;;14.10;12.80;;;17.00;1.00;;;;;;5101219;28;20956;-55
2022/05/05 00:56:36;;;;;;;14.23;12.93;;;16.90;1.00;;;;;;5099332;28;20447;-55
2022/05/05 00:59:02;;;;;;;14.97;13.40;;;16.80;1.00;;;;;;5103787;28;20269;-56
2022/05/05 01:01:28;;;;;;;14.83;13.33;;;16.80;1.00;;;;;;5100317;28;20556;-54
2022/05/05 01:03:53;;;;;;;14.40;12.97;;;16.60;1.00;;;;;;5103400;28;20539;-56
2022/05/05 01:06:19;;;;;;;14.80;13.40;;;16.60;1.00;;;;;;5101647;28;20190;-55
2022/05/05 01:08:46;;;;;;;15.83;14.20;;;16.50;1.00;;;;;;5101674;28;20273;-55
2022/05/05 01:11:12;;;;;;;14.77;13.37;;;16.70;1.00;;;;;;5101508;28;20198;-53
2022/05/05 01:13:39;;;;;;;14.90;13.40;;;16.60;1.00;;;;;;5103415;28;20455;-55
2022/05/05 01:16:06;;;;;;;14.03;12.83;;;16.70;1.00;;;;;;5102004;28;20486;-55
2022/05/05 01:18:32;;;;;;;15.17;13.80;;;;;;;;;;5103382;28;20461;-54
2022/05/05 01:20:58;;;;;;;14.97;12.97;;;16.50;1.00;;;;;;5081415;28;20492;-55
2022/05/05 01:23:24;;;;;;;14.10;12.80;;;16.50;1.00;;;;;;5103743;28;20459;-53
2022/05/05 01:28:39;;;;;;;14.77;13.33;;;16.60;1.00;;;;;;5101617;28;20470;-53
2022/05/05 01:31:05;;;;;;;14.40;13.10;;;16.50;1.00;;;;;;5105441;28;21086;-55
2022/05/05 01:33:30;;;;;;;15.60;14.10;;;16.50;1.00;;;;;;5103001;28;20451;-55
2022/05/05 01:35:58;;;;;;;14.13;12.80;;;16.60;1.00;;;;;;5101319;28;20254;-54
2022/05/05 01:38:37;;;;;;;15.50;14.10;;;16.50;1.00;;;;;;5101296;28;20190;-53
2022/05/05 01:41:06;;;;;;;15.37;13.93;;;16.60;1.00;;;;;;5098751;28;20447;-55
2022/05/05 01:43:32;;;;;;;15.30;13.80;;;16.60;1.00;;;;;;5100964;28;20481;-54
2022/05/05 01:45:58;;;;;;;15.67;14.17;;;16.60;1.00;;;;;;5106823;28;20462;-55
2022/05/05 01:48:24;;;;;;;15.53;14.00;;;16.60;1.00;;;;;;5100209;28;20440;-54
2022/05/05 01:50:49;;;;;;;15.60;13.90;;;16.70;1.00;;;;;;5093134;28;20190;-52
2022/05/05 01:53:15;;;;;;;16.40;14.77;;;16.70;1.00;;;;;;5101939;28;20209;-54
2022/05/05 01:55:40;;;;;;;14.40;13.03;;;16.70;1.00;;;;;;5097766;28;20213;-52
2022/05/05 01:58:06;;;;;;;14.77;13.37;;;16.70;1.00;;;;;;5108161;28;20182;-56
2022/05/05 02:00:32;;;;;;;16.17;14.77;;;16.70;1.00;;;;;;5104963;28;20206;-53
2022/05/05 02:02:58;;;;;;;16.00;14.40;;;16.80;1.00;;;;;;5094685;28;20551;-56
2022/05/05 02:05:24;;;;;;;14.70;13.20;;;16.80;1.00;;;;;;5096713;28;20441;-54
2022/05/05 02:07:49;;;;;;;15.47;13.97;;;16.80;1.00;;;;;;5097497;28;20481;-56
2022/05/05 02:10:17;;;;;;;16.20;14.60;;;16.70;1.00;;;;;;5096515;28;20642;-54
2022/05/05 02:12:44;;;;;;;15.60;14.10;;;16.70;1.00;;;;;;5103784;28;20698;-54
2022/05/05 02:15:12;;;;;;;16.17;14.47;;;16.70;1.00;;;;;;5095448;28;20961;-55
2022/05/05 02:17:40;;;;;;;14.60;13.30;;;16.70;1.00;;;;;;5098274;28;20451;-54
2022/05/05 02:20:07;;;;;;;15.30;13.80;;;16.70;1.00;;;;;;5100374;28;20439;-55
2022/05/05 02:22:33;;;;;;;16.27;14.50;;;16.70;1.00;;;;;;5108829;28;20806;-54
2022/05/05 02:24:59;;;;;;;16.37;14.70;;;16.70;1.00;;;;;;5105185;28;20440;-55
2022/05/05 02:27:25;;;;;;;15.10;13.70;;;16.70;1.00;;;;;;5095337;28;20281;-53
2022/05/05 02:29:51;;;;;;;15.60;14.10;;;16.70;1.00;;;;;;5097917;28;21048;-56
2022/05/05 02:32:17;;;;;;;16.30;14.63;;;16.70;1.00;;;;;;5098072;28;20948;-55
2022/05/05 02:34:46;;;;;;;16.73;15.10;;;16.60;1.00;;;;;;5102504;28;20513;-56
2022/05/05 02:39:58;;;;;;;17.37;15.77;;;16.50;1.00;;;;;;5092419;28;20487;-55
2022/05/05 02:42:23;;;;;;;17.50;15.63;;;17.70;1.00;;;;;;5099468;28;20560;-57
2022/05/05 02:44:49;;;;;;;17.20;15.60;;;16.20;1.00;;;;;;5090108;28;20543;-54
2022/05/05 02:47:15;;;;;;;17.00;15.33;;;16.00;1.00;;;;;;5102805;28;20224;-53
2022/05/05 02:49:41;;;;;;;16.97;15.27;;;16.00;1.00;;;;;;5105418;28;20243;-54
2022/05/05 02:52:08;;;;;;;17.57;15.40;;;16.00;1.00;;;;;;5107339;28;20174;-54
2022/05/05 02:54:53;;;;;;;16.23;14.73;;;16.00;1.00;;;;;;5102246;28;20444;-53
2022/05/05 02:57:23;;;;;;;16.97;15.27;;;16.00;1.00;;;;;;5098300;28;20470;-56
2022/05/05 02:59:53;;;;;;;19.20;15.00;;;16.10;1.00;;;;;;5103363;28;20479;-54
2022/05/05 03:02:19;;;;;;;17.17;15.47;;;16.00;1.00;;;;;;5091486;28;20475;-54
2022/05/05 03:04:45;;;;;;;17.43;15.80;;;;;;;;;;5099943;28;20436;-57
2022/05/05 03:07:11;;;;;;;16.87;15.23;;;15.90;1.00;;;;;;5100260;28;20848;-54
2022/05/05 03:09:37;;;;;;;17.63;16.07;;;15.90;1.00;;;;;;5096577;28;20471;-55
2022/05/05 03:12:03;;;;;;;16.50;14.80;;;15.90;1.00;;;;;;5109430;28;20186;-53
2022/05/05 03:14:28;;;;;;;17.30;15.63;;;15.90;1.00;;;;;;5095068;28;20452;-54
2022/05/05 03:16:54;;;;;;;17.23;15.50;;;15.80;1.00;;;;;;5106377;28;20443;-54
2022/05/05 03:19:20;;;;;;;17.47;15.70;;;15.80;1.00;;;;;;5102409;28;20277;-54
2022/05/05 03:21:45;;;;;;;16.90;15.30;;;15.70;1.00;;;;;;5108297;28;20186;-54
2022/05/05 03:24:10;;;;;;;17.73;16.03;;;15.70;1.00;;;;;;5096895;28;20191;-54
2022/05/05 03:26:36;;;;;;;16.37;14.77;;;15.70;1.00;;;;;;5098382;28;20175;-55
2022/05/05 03:29:04;;;;;;;17.97;16.17;;;15.60;1.00;;;;;;5108105;28;20216;-54
2022/05/05 03:31:32;;;;;;;16.50;14.80;;;15.60;1.00;;;;;;5101961;28;20611;-52
2022/05/05 03:33:58;;;;;;;16.37;14.80;;;15.50;1.00;;;;;;5092859;28;20825;-54
2022/05/05 03:36:23;;;;;;;18.83;16.93;;;15.50;1.00;;;;;;5097464;28;20444;-55
2022/05/05 03:38:49;;;;;;;17.10;15.30;;;15.60;1.00;;;;;;5084692;28;20196;-56
2022/05/05 03:41:15;;;;;;;17.27;15.57;;;15.50;1.00;;;;;;5102920;28;20178;-55
2022/05/05 03:43:41;;;;;;;17.60;15.77;;;15.50;1.00;;;;;;5099906;28;20981;-55
2022/05/05 03:46:06;;;;;;;18.07;16.17;;;15.40;1.00;;;;;;5107965;28;20183;-54
2022/05/05 03:48:32;;;;;;;16.53;15.03;;;15.30;1.00;;;;;;5108962;28;20182;-55
2022/05/05 03:50:58;;;;;;;17.33;15.63;;;15.20;1.00;;;;;;5111625;28;20178;-54
2022/05/05 03:53:23;;;;;;;18.00;16.10;;;15.30;1.00;;;;;;5111070;28;20198;-56
2022/05/05 03:55:49;;;;;;;19.03;17.10;;;15.50;1.00;;;;;;5105941;28;20274;-54
2022/05/05 03:58:14;;;;;;;19.53;17.40;;;15.50;1.00;;;;;;5108943;28;20213;-54
2022/05/05 04:00:40;;;;;;;18.23;16.40;;;15.50;1.00;;;;;;5109470;28;20276;-55
2022/05/05 04:05:49;;;;;;;18.03;16.23;;;15.30;1.00;;;;;;5098135;28;20213;-56
2022/05/05 04:08:15;;;;;;;18.37;16.47;;;15.30;1.00;;;;;;5107679;28;20794;-56
2022/05/05 04:10:40;;;;;;;17.53;15.83;;;15.30;1.00;;;;;;5110588;28;20213;-53
2022/05/05 04:13:06;;;;;;;18.77;16.23;;;15.30;1.00;;;;;;5111303;28;20204;-53
2022/05/05 04:15:33;;;;;;;17.20;15.33;;;15.40;1.00;;;;;;5106356;28;20548;-54
2022/05/05 04:18:02;;;;;;;17.80;16.10;;;15.60;1.00;;;;;;5099317;28;20628;-54
2022/05/05 04:20:28;;;;;;;16.07;14.53;;;15.50;1.00;;;;;;5107083;28;20456;-53
2022/05/05 04:22:55;;;;;;;17.37;15.67;;;15.70;1.00;;;;;;5077698;28;20479;-54
2022/05/05 04:25:21;;;;;;;15.23;13.40;;;15.90;1.00;;;;;;5100706;28;20643;-55
2022/05/05 04:27:49;;;;;;;15.03;13.60;;;16.00;1.00;;;;;;5110788;28;20470;-52
2022/05/05 04:30:16;;;;;;;14.70;13.23;;;16.10;1.00;;;;;;5093570;28;20193;-53
2022/05/05 04:32:42;;;;;;;15.93;14.30;;;16.10;1.00;;;;;;5098863;28;20452;-54
2022/05/05 04:35:09;;;;;;;16.60;15.00;;;16.20;1.00;;;;;;5095149;28;20539;-54
2022/05/05 04:37:34;;;;;;;15.20;13.90;;;16.20;1.00;;;;;;5104798;28;20508;-54
2022/05/05 04:40:00;;;;;;;15.40;13.80;;;16.20;1.00;;;;;;5103743;28;20451;-52
2022/05/05 04:42:26;;;;;;;15.43;13.93;;;16.10;1.00;;;;;;5107020;28;21808;-54
2022/05/05 04:44:52;;;;;;;16.20;14.60;;;16.20;1.00;;;;;;5109978;28;20279;-54
2022/05/05 04:47:19;;;;;;;17.53;15.83;;;;;;;;;;5109743;28;20198;-56
2022/05/05 04:49:45;;;;;;;17.70;16.00;;;16.20;1.00;;;;;;5082410;28;20447;-59
2022/05/05 04:52:10;;;;;;;18.80;16.80;;;16.20;1.00;;;;;;5110190;28;20798;-59
2022/05/05 04:54:36;;;;;;;18.10;16.30;;;16.10;1.00;;;;;;5110975;28;20182;-58
2022/05/05 04:57:02;;;;;;;17.60;15.90;;;16.40;1.00;;;;;;5095462;28;21004;-58
2022/05/05 04:59:28;;;;;;;19.50;15.10;;;16.50;1.00;;;;;;5102473;28;20254;-59
2022/05/05 05:01:53;;;;;;;22.43;15.20;;;16.70;1.00;;;;;;5095900;28;20471;-55
2022/05/05 05:04:19;;;;;;;16.20;14.57;;;16.70;1.00;;;;;;5105958;28;20201;-55
2022/05/05 05:06:44;;;;;;;18.93;14.27;;;16.80;1.00;;;;;;5096900;28;20209;-54
2022/05/05 05:09:10;;;;;;;17.17;15.37;;;;;;;;;;5104635;28;20179;-55
2022/05/05 05:11:36;;;;;;;18.47;16.57;;;16.90;1.00;;;;;;5110630;28;20199;-55
2022/05/05 05:14:02;;;;;;;18.47;16.67;;;;;;;;;;5091621;28;20447;-56
2022/05/05 05:16:27;;;;;;;20.43;18.37;;;17.10;1.00;;;;;;5093781;28;20616;-56
2022/05/05 05:18:54;;;;;;;19.33;17.50;;;17.10;1.00;;;;;;5101464;28;20448;-57
2022/05/05 05:21:20;;;;;;;19.20;17.30;;;17.10;1.00;;;;;;5089479;28;20229;-56
2022/05/05 05:23:46;;;;;;;20.07;18.17;;;17.10;1.00;;;;;;5111312;28;20468;-58
2022/05/05 05:26:13;;;;;;;19.30;17.00;;;17.10;1.00;;;;;;5105949;28;20577;-58
2022/05/05 05:28:39;;;;;;;21.10;19.00;;;17.10;1.00;;;;;;5109286;28;20201;-57
2022/05/05 05:31:05;;;;;;;20.80;18.60;;;17.10;1.00;;;;;;5103677;28;20489;-58
2022/05/05 05:33:30;;;;;;;20.93;18.83;;;17.20;1.00;;;;;;5099317;28;20475;-58
2022/05/05 05:35:56;;;;;;;22.13;19.60;;;17.20;1.00;;;;;;5106764;28;20186;-59
2022/05/05 05:38:21;;;;;;;22.33;19.93;;;17.00;1.00;;;;;;5108947;28;20189;-58
2022/05/05 05:40:47;;;;;;;20.03;17.87;;;16.90;1.00;;;;;;5108851;28;20239;-58
2022/05/05 05:43:13;;;;;;;23.97;21.50;;;16.90;1.00;;;;;;5108348;28;21373;-59
2022/05/05 05:45:39;;;;;;;21.97;19.73;;;16.80;1.00;;;;;;5097326;28;20460;-59
2022/05/05 05:48:06;;;;;;;22.93;20.67;;;16.80;1.00;;;;;;5093428;28;20447;-57
2022/05/05 05:50:32;;;;;;;24.50;21.97;;;16.80;1.00;;;;;;5098931;28;20231;-59
2022/05/05 05:52:58;;;;;;;23.97;20.27;;;16.60;1.00;;;;;;5109809;28;20508;-60
2022/05/05 05:55:24;;;;;;;24.80;22.23;;;16.60;1.00;;;;;;5106671;28;20191;-58
2022/05/05 05:57:50;;;;;;;25.83;21.67;;;16.70;1.00;;;;;;5104540;28;20450;-57
2022/05/05 06:00:15;;;;;;;24.10;21.80;;;16.90;1.00;;;;;;5096625;28;20613;-55
2022/05/05 06:05:25;;;;;;;24.73;22.10;;;16.80;1.00;;;;;;5103104;28;20188;-56
2022/05/05 06:07:51;;;;;;;25.20;22.30;;;16.90;1.00;;;;;;5076349;28;20444;-56
2022/05/05 06:10:20;;;;;;;27.63;21.40;;;17.10;1.00;;;;;;5110237;28;20427;-56
2022/05/05 06:12:46;;;;;;;25.40;22.73;;;17.10;1.00;;;;;;5094823;28;20201;-55
2022/05/05 06:15:11;;;;;;;23.10;20.67;;;17.10;1.00;;;;;;5109612;28;20439;-55
2022/05/05 06:17:37;;;;;;;24.43;22.03;;;17.20;1.00;;;;;;5109428;28;20182;-55
2022/05/05 06:20:03;;;;;;;25.63;22.87;;;16.90;1.00;;;;;;5106541;28;20185;-55
2022/05/05 06:22:30;;;;;;;24.90;22.17;;;16.80;1.00;;;;;;5103886;28;20210;-54
2022/05/05 06:24:56;;;;;;;25.60;23.00;;;16.70;1.00;;;;;;5096378;28;20520;-55
2022/05/05 06:27:21;;;;;;;27.00;24.10;;;16.70;1.00;;;;;;5090189;28;20966;-52
2022/05/05 06:29:47;;;;;;;26.80;23.60;;;16.80;1.00;;;;;;5096517;28;20531;-55
2022/05/05 06:32:12;;;;;;;24.20;21.73;;;16.70;1.00;;;;;;5107798;28;20178;-54
2022/05/05 06:34:38;;;;;;;28.13;22.63;;;16.70;1.00;;;;;;5109388;28;20190;-55
2022/05/05 06:37:05;;;;;;;25.77;23.17;;;16.60;1.00;;;;;;5110355;28;20209;-55
2022/05/05 06:39:30;;;;;;;26.03;23.33;;;16.50;1.00;;;;;;5105592;28;20190;-54
2022/05/05 06:41:56;;;;;;;25.00;22.30;;;16.50;1.00;;;;;;5091010;28;20466;-55
2022/05/05 06:44:22;;;;;;;23.10;20.77;;;16.70;1.00;;;;;;5090050;28;20548;-55
2022/05/05 06:46:48;;;;;;;23.20;20.50;;;16.70;1.00;;;;;;5090682;28;20251;-55
2022/05/05 06:49:13;;;;;;;21.30;18.80;;;16.70;1.00;;;;;;5106216;28;20529;-55
2022/05/05 06:51:39;;;;;;;22.47;17.43;;;16.70;1.00;;;;;;5081166;28;20201;-55
2022/05/05 06:54:04;;;;;;;21.73;19.37;;;16.60;1.00;;;;;;5098354;28;20190;-54
2022/05/05 06:56:30;;;;;;;22.83;19.40;;;16.80;1.00;;;;;;5096241;28;20182;-54
2022/05/05 06:58:55;;;;;;;22.17;19.87;;;16.80;1.00;;;;;;5090945;28;20505;-55
2022/05/05 07:06:49;;;;;;;22.30;19.17;;;16.60;1.00;;;;;;5110395;28;20439;-54
2022/05/05 07:11:58;;;;;;;22.50;18.60;;;16.50;1.00;;;;;;5094245;28;20247;-56
2022/05/05 07:14:25;;;;;;;20.30;18.10;;;16.60;1.00;;;;;;5110051;28;20916;-56
2022/05/05 07:16:50;;;;;;;20.20;18.10;;;16.70;1.00;;;;;;5092277;28;20186;-55
2022/05/05 07:19:16;;;;;;;19.20;17.20;;;16.80;1.00;;;;;;5096718;28;20954;-56
2022/05/05 07:21:41;;;;;;;23.17;18.73;;;16.80;1.00;;;;;;5097676;28;20189;-56
2022/05/05 07:24:07;;;;;;;25.77;18.20;;;16.90;1.00;;;;;;5106339;28;20182;-56
2022/05/05 07:26:33;;;;;;;22.90;19.30;;;16.90;1.00;;;;;;5075222;28;20592;-55
2022/05/05 07:28:58;;;;;;;20.43;17.53;;;16.90;1.00;;;;;;5096622;28;20193;-54
2022/05/05 07:31:24;;;;;;;20.10;17.93;;;16.90;1.00;;;;;;5093263;28;20187;-55
2022/05/05 07:33:49;;;;;;;20.07;17.20;;;17.00;1.00;;;;;;5102150;28;20225;-55
2022/05/05 07:36:15;;;;;;;17.57;15.87;;;17.10;1.00;;;;;;5105671;28;20565;-55
2022/05/05 07:38:41;;;;;;;19.00;16.40;;;17.10;1.00;;;;;;5097908;28;22213;-54
2022/05/05 07:41:06;;;;;;;17.13;15.30;;;17.20;1.00;;;;;;5096128;28;20437;-54
2022/05/05 07:43:32;;;;;;;19.53;16.40;;;17.40;1.00;;;;;;5084084;28;20262;-54
2022/05/05 07:45:57;;;;;;;17.63;15.83;;;17.40;1.00;;;;;;5093747;28;20524;-54
2022/05/05 07:48:23;;;;;;;17.63;15.57;;;17.60;1.00;;;;;;5092921;28;20182;-56
2022/05/05 07:50:48;;;;;;;20.03;16.33;;;17.60;1.00;;;;;;5103177;28;20185;-53
2022/05/05 07:53:15;;;;;;;19.40;15.90;;;17.50;1.00;;;;;;5113404;28;20427;-53
2022/05/05 07:55:40;;;;;;;17.60;15.37;;;17.60;1.00;;;;;;5112867;28;20272;-55
2022/05/05 07:58:06;;;;;;;19.20;15.80;;;17.90;1.00;;;;;;5094449;28;20555;-54
2022/05/05 08:00:32;;;;;;;18.50;16.67;;;17.90;1.00;;;;;;5096962;28;20252;-56
2022/05/05 08:02:57;;;;;;;19.43;15.70;;;18.10;1.00;;;;;;5102039;28;20740;-56
2022/05/05 08:05:23;;;;;;;17.47;15.67;;;18.10;1.00;;;;;;5103916;28;20202;-56
2022/05/05 08:07:49;;;;;;;20.23;18.00;;;18.20;1.00;;;;;;5096605;28;20203;-55
2022/05/05 08:10:17;;;;;;;18.53;16.67;;;18.30;1.00;;;;;;5107506;28;21050;-54
2022/05/05 08:12:43;;;;;;;19.10;17.10;;;18.50;1.00;;;;;;5107207;28;21911;-55
2022/05/05 08:15:10;;;;;;;18.33;16.40;;;18.60;1.00;;;;;;5099919;28;20452;-55
2022/05/05 08:17:36;;;;;;;19.33;16.20;;;18.80;1.00;;;;;;5109438;28;20441;-53
2022/05/05 08:20:06;;;;;;;22.50;17.77;;;18.80;1.00;;;;;;5112647;28;20556;-56
2022/05/05 08:22:31;;;;;;;17.50;15.90;;;18.90;1.00;;;;;;5112512;28;20247;-54
2022/05/05 08:30:26;;;;;;;17.10;15.33;;;18.30;1.00;;;;;;5105785;28;20444;-55
2022/05/05 08:32:51;;;;;;;18.77;16.90;;;18.40;1.00;;;;;;5092264;28;20433;-54
2022/05/05 08:35:17;;;;;;;17.10;15.30;;;18.30;1.00;;;;;;5105321;28;20186;-54
2022/05/05 08:37:43;;;;;;;20.13;18.10;;;18.30;1.00;;;;;;5112469;28;20238;-55
2022/05/05 08:40:12;;;;;;;18.80;15.67;;;18.50;1.00;;;;;;5112341;28;20224;-55
2022/05/05 08:42:40;;;;;;;18.47;16.43;;;18.70;1.00;;;;;;5112294;28;20201;-54
2022/05/05 08:45:06;;;;;;;19.13;15.40;;;18.80;1.00;;;;;;5106504;28;20475;-55
2022/05/05 08:47:33;;;;;;;16.93;14.73;;;18.40;1.00;;;;;;5112579;28;20470;-52
2022/05/05 08:49:59;;;;;;;17.60;14.70;;;18.60;1.00;;;;;;5112309;28;20519;-56
2022/05/05 08:52:28;;;;;;;17.53;15.60;;;18.80;1.00;;;;;;5112004;28;20448;-57
2022/05/05 08:54:53;;;;;;;18.23;15.50;;;19.10;1.00;;;;;;5091711;28;20439;-55
2022/05/05 08:57:19;;;;;;;15.97;13.33;;;19.40;1.00;;;;;;5091833;28;20436;-55
2022/05/05 08:59:44;;;;;;;16.30;14.73;;;19.80;1.00;;;;;;5091750;28;20190;-52
2022/05/05 09:02:10;;;;;;;17.23;14.73;;;20.20;1.00;;;;;;5091172;28;20210;-53
2022/05/05 09:04:36;;;;;;;16.43;14.93;;;20.60;1.00;;;;;;5095043;28;20227;-53
2022/05/05 09:07:02;;;;;;;16.10;14.50;;;20.80;1.00;;;;;;5105762;28;20449;-54
2022/05/05 09:09:31;;;;;;;16.13;14.37;;;21.30;1.00;;;;;;5091275;28;20200;-53
2022/05/05 09:12:17;;;;;;;15.87;14.30;;;21.60;1.00;;;;;;5091430;28;20187;-54
2022/05/05 09:14:50;;;;;;;15.80;14.30;;;21.90;1.00;;;;;;5110512;28;20436;-53
2022/05/05 09:17:17;;;;;;;16.17;14.40;;;22.00;1.00;;;;;;5111463;28;20515;-55
2022/05/05 09:19:48;;;;;;;15.70;14.17;;;22.20;1.00;;;;;;5109821;28;20448;-55
2022/05/05 09:22:16;;;;;;;16.10;14.50;;;22.30;1.00;;;;;;5109574;28;20842;-55
2022/05/05 09:24:49;;;;;;;15.17;13.50;;;22.80;1.00;;;;;;5111388;28;20460;-55
2022/05/05 09:27:29;;;;;;;14.40;13.10;;;23.70;1.00;;;;;;5111060;28;20493;-53
2022/05/05 09:30:00;;;;;;;13.40;12.10;;;24.60;1.00;;;;;;5111182;28;20463;-55
2022/05/05 09:32:40;;;;;;;14.27;12.97;;;24.60;1.00;;;;;;5111152;28;20523;-53
2022/05/05 09:35:15;;;;;;;14.97;13.20;;;24.50;1.00;;;;;;5111158;28;20771;-53
2022/05/05 09:37:54;;;;;;;13.80;12.60;;;24.40;1.00;;;;;;5110974;28;20406;-54
2022/05/05 09:40:21;;;;;;;12.17;10.97;;;24.20;1.00;;;;;;5101242;28;20448;-53
2022/05/05 09:42:49;;;;;;;12.60;11.50;;;23.10;1.00;;;;;;5109643;28;20474;-54
2022/05/05 09:45:23;;;;;;;13.43;11.03;;;21.90;1.00;;;;;;5108689;28;20886;-54
2022/05/05 09:47:51;;;;;;;10.87;9.60;;;21.00;1.00;;;;;;5110698;28;20878;-55
2022/05/05 09:50:20;;;;;;;13.13;11.70;;;20.60;1.00;;;;;;5110696;28;20436;-54
2022/05/05 09:58:19;;;;;;;11.47;10.00;;;20.00;1.00;;;;;;5093695;28;20597;-55
2022/05/05 10:00:55;;;;;;;12.63;11.40;;;20.20;1.00;;;;;;5090007;28;20431;-55
2022/05/05 10:06:25;;;;;;;12.03;10.47;;;21.30;1.00;;;;;;5099145;28;20457;-54
2022/05/05 10:08:53;;;;;;;10.03;9.13;;;21.30;1.00;;;;;;5090021;28;20436;-54
2022/05/05 10:11:21;;;;;;;11.50;10.40;;;21.30;1.00;;;;;;5098799;28;20435;-57
2022/05/05 10:13:48;;;;;;;9.83;8.90;;;21.40;1.00;;;;;;5090009;28;20440;-54
2022/05/05 10:16:14;;;;;;;10.83;9.73;;;21.30;1.00;;;;;;5090310;28;20854;-55
2022/05/05 10:18:41;;;;;;;10.77;9.60;;;21.40;1.00;;;;;;5090026;28;20768;-55
2022/05/05 10:21:09;;;;;;;10.13;9.13;;;21.50;1.00;;;;;;5090089;28;20500;-56
2022/05/05 10:24:09;;;;;;;9.73;8.73;;;21.50;1.00;;;;;;5106950;28;21073;-56
2022/05/05 10:26:35;;;;;;;9.60;8.73;;;21.70;1.00;;;;;;5090066;28;20917;-55
2022/05/05 10:29:02;;;;;;;9.43;7.97;;;21.80;1.00;;;;;;5092856;28;20504;-56
2022/05/05 10:31:30;;;;;;;8.77;7.97;;;21.90;1.00;;;;;;5110458;28;20893;-56
2022/05/05 10:34:00;;;;;;;9.63;8.83;;;21.90;1.00;;;;;;5109747;28;20447;-54
2022/05/05 10:36:27;;;;;;;9.87;8.70;;;22.20;1.00;;;;;;5109071;28;20444;-56
2022/05/05 10:38:53;;;;;;;9.37;8.57;;;22.30;1.00;;;;;;5092055;28;21069;-55
2022/05/05 10:41:36;;;;;;;8.30;7.60;;;22.40;1.00;;;;;;5113492;28;20447;-56
2022/05/05 10:44:20;;;;;;;7.77;7.10;;;22.00;1.00;;;;;;5114083;28;20225;-53
2022/05/05 10:47:02;;;;;;;8.37;7.57;;;22.10;1.00;;;;;;5096180;28;20964;-54
2022/05/05 10:49:30;;;;;;;7.73;6.93;;;21.90;1.00;;;;;;5114449;28;20435;-55
2022/05/05 10:52:08;;;;;;;8.43;7.47;;;21.80;1.00;;;;;;5114362;28;20766;-56
2022/05/05 10:54:34;;;;;;;9.23;7.57;;;22.10;1.00;;;;;;5114404;28;20457;-55
2022/05/05 10:57:24;;;;;;;7.80;7.13;;;22.40;1.00;;;;;;5105119;28;20491;-54
2022/05/05 11:00:10;;;;;;;8.10;7.30;;;23.00;1.00;;;;;;5112483;28;20514;-56
2022/05/05 11:03:02;;;;;;;7.67;6.87;;;23.10;1.00;;;;;;5093965;28;20984;-55
2022/05/05 11:05:32;;;;;;;7.60;6.90;;;22.90;1.00;;;;;;5095066;28;20491;-54
2022/05/05 11:08:28;;;;;;;7.60;6.20;;;23.00;1.00;;;;;;5094774;28;20520;-56
2022/05/05 11:13:40;;;;;;;8.73;7.93;;;23.10;1.00;;;;;;5072001;28;20555;-56
2022/05/05 11:22:26;;;;;;;8.40;7.53;;;23.20;1.00;;;;;;5111783;28;20983;-55
2022/05/05 11:24:52;;;;;;;8.40;7.60;;;23.20;1.00;;;;;;5107517;28;20551;-55
2022/05/05 11:27:20;;;;;;;11.13;7.00;;;22.80;1.00;;;;;;5113332;28;20461;-55
2022/05/05 11:29:53;;;;;;;9.20;7.70;;;22.80;1.00;;;;;;5094777;28;20514;-56
2022/05/05 11:32:19;;;;;;;8.83;8.00;;;22.50;1.00;;;;;;5093408;28;20489;-55
2022/05/05 11:34:47;;;;;;;8.10;6.80;;;22.20;1.00;;;;;;5073914;28;20450;-55
2022/05/05 11:37:13;;;;;;;8.27;7.47;;;22.10;1.00;;;;;;5113843;28;20457;-55
2022/05/05 11:39:39;;;;;;;8.53;7.73;;;22.20;1.00;;;;;;5113238;28;20410;-56
2022/05/05 11:42:05;;;;;;;8.17;7.30;;;22.10;1.00;;;;;;5113442;28;20485;-53
2022/05/05 11:44:49;;;;;;;9.50;6.87;;;22.20;1.00;;;;;;5112261;28;20455;-56
2022/05/05 11:47:20;;;;;;;7.73;6.93;;;22.80;1.00;;;;;;5112388;28;20428;-56
2022/05/05 11:49:54;;;;;;;6.77;6.17;;;23.20;1.00;;;;;;5112061;28;20439;-54
2022/05/05 11:52:24;;;;;;;9.63;7.00;;;23.60;1.00;;;;;;5110899;28;20454;-54
2022/05/05 11:54:55;;;;;;;6.83;6.20;;;23.80;1.00;;;;;;5111817;28;20422;-56
2022/05/05 11:57:39;;;;;;;7.80;7.07;;;23.90;1.00;;;;;;5101133;28;20456;-55
2022/05/05 12:02:55;;;;;;;7.13;6.53;;;23.20;1.00;;;;;;5111986;28;20470;-54
2022/05/05 12:05:22;;;;;;;7.40;6.80;;;23.20;1.00;;;;;;5108001;28;20429;-55
2022/05/05 12:07:50;;;;;;;9.80;6.90;;;23.10;1.00;;;;;;5093529;28;20535;-57
2022/05/05 12:10:16;;;;;;;6.50;5.90;;;23.00;1.00;;;;;;5091592;28;20563;-54
2022/05/05 12:12:46;;;;;;;8.67;6.97;;;23.00;1.00;;;;;;5091392;28;20436;-54
2022/05/05 12:15:13;;;;;;;8.00;7.00;;;22.70;1.00;;;;;;5095423;28;20440;-56
2022/05/05 12:17:45;;;;;;;8.20;6.57;;;22.70;1.00;;;;;;5111748;28;20555;-53
2022/05/05 12:20:13;;;;;;;7.00;6.20;;;22.60;1.00;;;;;;5110632;28;20458;-55
2022/05/05 12:22:40;;;;;;;8.90;6.70;;;22.80;1.00;;;;;;5111434;28;20471;-55
2022/05/05 12:25:14;;;;;;;6.53;5.70;;;22.80;1.00;;;;;;5111465;28;20766;-54
2022/05/05 12:27:41;;;;;;;6.17;5.57;;;23.30;1.00;;;;;;5111728;28;20493;-55
2022/05/05 12:30:07;;;;;;;6.73;6.13;;;23.60;1.00;;;;;;5111609;28;20439;-55
2022/05/05 12:32:33;;;;;;;7.40;6.33;;;23.60;1.00;;;;;;5111506;28;20535;-54
2022/05/05 12:35:10;;;;;;;7.20;6.47;;;23.70;1.00;;;;;;5092990;28;20426;-55
2022/05/05 12:37:37;;;;;;;7.03;6.43;;;23.70;1.00;;;;;;5111473;28;20190;-56
2022/05/05 12:40:07;;;;;;;8.70;6.57;;;23.50;1.00;;;;;;5099494;28;20564;-55
2022/05/05 12:42:42;;;;;;;8.50;6.57;;;23.40;1.00;;;;;;5090822;28;20450;-55
2022/05/05 12:45:20;;;;;;;9.40;6.13;;;23.30;1.00;;;;;;5073862;28;1044919;-56
2022/05/05 12:47:49;;;;;;;6.00;5.40;;;23.20;1.00;;;;;;5111879;28;20186;-56
2022/05/05 12:50:35;;;;;;;8.20;5.67;;;23.50;1.00;;;;;;5091822;28;20456;-53
2022/05/05 13:01:43;;;;;;;9.07;7.70;;;23.20;1.00;;;;;;5112134;28;21382;-55
2022/05/05 13:04:12;;;;;;;8.13;7.20;;;22.80;1.00;;;;;;5111316;28;20474;-54
2022/05/05 13:06:39;;;;;;;10.40;6.90;;;22.80;1.00;;;;;;5098541;28;20440;-54
2022/05/05 13:09:07;;;;;;;7.70;6.93;;;23.20;1.00;;;;;;5091638;28;20437;-54
2022/05/05 13:11:33;;;;;;;7.70;7.00;;;23.50;1.00;;;;;;5091404;28;21025;-53
2022/05/05 13:13:58;;;;;;;6.97;6.40;;;23.20;1.00;;;;;;5091672;28;20448;-55
2022/05/05 13:16:28;;;;;;;7.70;6.90;;;23.10;1.00;;;;;;5099224;28;20182;-54
2022/05/05 13:18:53;;;;;;;6.63;6.03;;;23.00;1.00;;;;;;5111696;28;20190;-53
2022/05/05 13:21:19;;;;;;;8.97;7.03;;;23.10;1.00;;;;;;5111563;28;20410;-55
2022/05/05 13:23:44;;;;;;;7.47;6.53;;;23.10;1.00;;;;;;5111187;28;20575;-55
2022/05/05 13:26:11;;;;;;;8.87;8.07;;;23.00;1.00;;;;;;5111723;28;20635;-56
2022/05/05 13:28:38;;;;;;;8.57;7.73;;;22.70;1.00;;;;;;5111283;28;20596;-57
2022/05/05 13:31:06;;;;;;;8.63;6.97;;;22.60;1.00;;;;;;5111888;28;21214;-59
2022/05/05 13:33:32;;;;;;;7.80;7.00;;;23.00;1.00;;;;;;5083380;28;20479;-59
2022/05/05 13:35:58;;;;;;;7.83;6.60;;;23.50;1.00;;;;;;5096693;28;20480;-60
2022/05/05 13:38:24;;;;;;;7.30;6.70;;;23.50;1.00;;;;;;5111532;28;20182;-59
2022/05/05 13:40:50;;;;;;;8.53;7.20;;;23.50;1.00;;;;;;5093153;28;20462;-59